N2145M KJFK-1B9
Flight info
| Callsign | N2145M |
|---|---|
| Flight time | 1h 28m |
| Altitude | 7000 |
| Route | BDR HFD FOSTY WOONS |
| Aircraft | C172/L-VGD/C |
Departure
| Time | 2026-05-08 00:14 |
|---|---|
| Airport | John F. Kennedy International Airport (KJFK) |
Arrival
| Time | 2026-05-08 01:42 |
|---|---|
| Airport | Mansfield Municipal Airport (1B9) |
| Time | Latitude | Longitude | Altitude | Speed | Heading |
|---|---|---|---|---|---|
| 2026-05-07 23:50 | 40.64917 | -73.80988 | 10 ft | 0 kts | 28° |
| 2026-05-08 00:06 | 40.64919 | -73.80987 | 10 ft | 1 kts | 9° |
| 2026-05-08 00:07 | 40.64931 | -73.81014 | 10 ft | 6 kts | 275° |
| 2026-05-08 00:07 | 40.64949 | -73.81097 | 10 ft | 12 kts | 298° |
| 2026-05-08 00:07 | 40.64954 | -73.81197 | 10 ft | 11 kts | 221° |
| 2026-05-08 00:07 | 40.64892 | -73.81179 | 10 ft | 11 kts | 131° |
| 2026-05-08 00:08 | 40.64843 | -73.81082 | 10 ft | 13 kts | 123° |
| 2026-05-08 00:08 | 40.64776 | -73.80940 | 10 ft | 22 kts | 116° |
| 2026-05-08 00:08 | 40.64682 | -73.80729 | 10 ft | 30 kts | 118° |
| 2026-05-08 00:08 | 40.64563 | -73.80469 | 10 ft | 35 kts | 120° |
| 2026-05-08 00:09 | 40.64435 | -73.80185 | 10 ft | 38 kts | 120° |
| 2026-05-08 00:09 | 40.64296 | -73.79896 | 10 ft | 34 kts | 135° |
| 2026-05-08 00:09 | 40.64153 | -73.79672 | 10 ft | 31 kts | 121° |
| 2026-05-08 00:09 | 40.64038 | -73.79432 | 9 ft | 30 kts | 115° |
| 2026-05-08 00:10 | 40.63934 | -73.79198 | 9 ft | 29 kts | 120° |
| 2026-05-08 00:10 | 40.63828 | -73.78963 | 10 ft | 30 kts | 120° |
| 2026-05-08 00:10 | 40.63714 | -73.78709 | 8 ft | 34 kts | 120° |
| 2026-05-08 00:10 | 40.63589 | -73.78438 | 7 ft | 33 kts | 118° |
| 2026-05-08 00:11 | 40.63482 | -73.78203 | 7 ft | 25 kts | 122° |
| 2026-05-08 00:11 | 40.63408 | -73.78032 | 7 ft | 17 kts | 117° |
| 2026-05-08 00:11 | 40.63363 | -73.77956 | 7 ft | 4 kts | 181° |
| 2026-05-08 00:11 | 40.63319 | -73.77975 | 7 ft | 8 kts | 200° |
| 2026-05-08 00:12 | 40.63311 | -73.77980 | 7 ft | 0 kts | 200° |
| 2026-05-08 00:13 | 40.63256 | -73.78003 | 7 ft | 17 kts | 194° |
| 2026-05-08 00:13 | 40.63244 | -73.78161 | 7 ft | 36 kts | 298° |
| 2026-05-08 00:13 | 40.63450 | -73.78613 | 8 ft | 75 kts | 303° |
| 2026-05-08 00:13 | 40.63721 | -73.79222 | 143 ft | 80 kts | 304° |
| 2026-05-08 00:14 | 40.64002 | -73.79832 | 355 ft | 74 kts | 304° |
| 2026-05-08 00:14 | 40.64249 | -73.80368 | 572 ft | 67 kts | 301° |
| 2026-05-08 00:14 | 40.64475 | -73.80906 | 733 ft | 69 kts | 292° |
| 2026-05-08 00:14 | 40.64411 | -73.81551 | 893 ft | 77 kts | 246° |
| 2026-05-08 00:15 | 40.63979 | -73.81992 | 1050 ft | 84 kts | 199° |
| 2026-05-08 00:15 | 40.63390 | -73.81976 | 1209 ft | 87 kts | 169° |
| 2026-05-08 00:15 | 40.62800 | -73.81787 | 1373 ft | 87 kts | 167° |
| 2026-05-08 00:15 | 40.62222 | -73.81574 | 1521 ft | 88 kts | 166° |
| 2026-05-08 00:16 | 40.61647 | -73.81348 | 1694 ft | 86 kts | 167° |
| 2026-05-08 00:16 | 40.61129 | -73.80959 | 1842 ft | 89 kts | 130° |
| 2026-05-08 00:16 | 40.60909 | -73.80239 | 1991 ft | 85 kts | 85° |
| 2026-05-08 00:16 | 40.60925 | -73.79477 | 2144 ft | 84 kts | 78° |
| 2026-05-08 00:17 | 40.60963 | -73.78719 | 2309 ft | 83 kts | 77° |
| 2026-05-08 00:17 | 40.61001 | -73.77970 | 2467 ft | 82 kts | 77° |
| 2026-05-08 00:17 | 40.61043 | -73.77224 | 2618 ft | 81 kts | 77° |
| 2026-05-08 00:17 | 40.61080 | -73.76482 | 2771 ft | 81 kts | 75° |
| 2026-05-08 00:18 | 40.61111 | -73.75748 | 2914 ft | 82 kts | 76° |
| 2026-05-08 00:18 | 40.61143 | -73.75009 | 3064 ft | 81 kts | 76° |
| 2026-05-08 00:18 | 40.61171 | -73.74262 | 3209 ft | 82 kts | 77° |
| 2026-05-08 00:18 | 40.61336 | -73.73612 | 3346 ft | 73 kts | 36° |
| 2026-05-08 00:19 | 40.61706 | -73.73179 | 3486 ft | 71 kts | 27° |
| 2026-05-08 00:19 | 40.62093 | -73.72766 | 3618 ft | 72 kts | 26° |
| 2026-05-08 00:19 | 40.62478 | -73.72359 | 3755 ft | 73 kts | 26° |
| 2026-05-08 00:19 | 40.62878 | -73.71930 | 3897 ft | 73 kts | 26° |
| 2026-05-08 00:20 | 40.63273 | -73.71503 | 4028 ft | 74 kts | 26° |
| 2026-05-08 00:20 | 40.63662 | -73.71080 | 4161 ft | 74 kts | 26° |
| 2026-05-08 00:20 | 40.64067 | -73.70639 | 4288 ft | 75 kts | 28° |
| 2026-05-08 00:20 | 40.64464 | -73.70200 | 4420 ft | 75 kts | 27° |
| 2026-05-08 00:21 | 40.64865 | -73.69757 | 4552 ft | 76 kts | 27° |
| 2026-05-08 00:21 | 40.65270 | -73.69309 | 4680 ft | 76 kts | 28° |
| 2026-05-08 00:21 | 40.65678 | -73.68851 | 4807 ft | 77 kts | 30° |
| 2026-05-08 00:21 | 40.66077 | -73.68394 | 4932 ft | 77 kts | 29° |
| 2026-05-08 00:22 | 40.66486 | -73.67934 | 5043 ft | 78 kts | 28° |
| 2026-05-08 00:22 | 40.66900 | -73.67470 | 5161 ft | 78 kts | 29° |
| 2026-05-08 00:22 | 40.67314 | -73.67008 | 5280 ft | 78 kts | 28° |
| 2026-05-08 00:22 | 40.67726 | -73.66548 | 5401 ft | 78 kts | 28° |
| 2026-05-08 00:23 | 40.68140 | -73.66092 | 5540 ft | 78 kts | 29° |
| 2026-05-08 00:23 | 40.68554 | -73.65635 | 5675 ft | 78 kts | 27° |
| 2026-05-08 00:23 | 40.68975 | -73.65169 | 5815 ft | 78 kts | 27° |
| 2026-05-08 00:23 | 40.69395 | -73.64709 | 5947 ft | 79 kts | 27° |
| 2026-05-08 00:24 | 40.69816 | -73.64247 | 6081 ft | 79 kts | 27° |
| 2026-05-08 00:24 | 40.70242 | -73.63783 | 6214 ft | 80 kts | 27° |
| 2026-05-08 00:24 | 40.70676 | -73.63308 | 6344 ft | 81 kts | 27° |
| 2026-05-08 00:24 | 40.71107 | -73.62835 | 6484 ft | 81 kts | 26° |
| 2026-05-08 00:25 | 40.71542 | -73.62354 | 6612 ft | 82 kts | 26° |
| 2026-05-08 00:25 | 40.71979 | -73.61873 | 6744 ft | 83 kts | 26° |
| 2026-05-08 00:25 | 40.72420 | -73.61384 | 6876 ft | 83 kts | 26° |
| 2026-05-08 00:25 | 40.72866 | -73.60891 | 6979 ft | 87 kts | 25° |
| 2026-05-08 00:26 | 40.73370 | -73.60340 | 7001 ft | 101 kts | 29° |
| 2026-05-08 00:26 | 40.73939 | -73.59701 | 7000 ft | 111 kts | 30° |
| 2026-05-08 00:26 | 40.74535 | -73.59019 | 6998 ft | 116 kts | 31° |
| 2026-05-08 00:26 | 40.75156 | -73.58315 | 6998 ft | 118 kts | 31° |
| 2026-05-08 00:27 | 40.75784 | -73.57606 | 6998 ft | 120 kts | 32° |
| 2026-05-08 00:27 | 40.76426 | -73.56886 | 7003 ft | 121 kts | 32° |
| 2026-05-08 00:27 | 40.77065 | -73.56172 | 6996 ft | 119 kts | 31° |
| 2026-05-08 00:27 | 40.77692 | -73.55468 | 6997 ft | 117 kts | 31° |
| 2026-05-08 00:28 | 40.78306 | -73.54793 | 6998 ft | 116 kts | 31° |
| 2026-05-08 00:28 | 40.78919 | -73.54116 | 6995 ft | 115 kts | 31° |
| 2026-05-08 00:28 | 40.79534 | -73.53433 | 6998 ft | 114 kts | 30° |
| 2026-05-08 00:28 | 40.80140 | -73.52760 | 7000 ft | 114 kts | 30° |
| 2026-05-08 00:29 | 40.80745 | -73.52089 | 7001 ft | 114 kts | 30° |
| 2026-05-08 00:29 | 40.81357 | -73.51409 | 6999 ft | 114 kts | 30° |
| 2026-05-08 00:29 | 40.81963 | -73.50734 | 7000 ft | 114 kts | 30° |
| 2026-05-08 00:29 | 40.82575 | -73.50053 | 7000 ft | 114 kts | 30° |
| 2026-05-08 00:30 | 40.83184 | -73.49374 | 7001 ft | 114 kts | 30° |
| 2026-05-08 00:30 | 40.83789 | -73.48700 | 7003 ft | 114 kts | 30° |
| 2026-05-08 00:30 | 40.84396 | -73.48024 | 7002 ft | 114 kts | 30° |
| 2026-05-08 00:30 | 40.85008 | -73.47344 | 6999 ft | 114 kts | 30° |
| 2026-05-08 00:31 | 40.85618 | -73.46664 | 6999 ft | 115 kts | 31° |
| 2026-05-08 00:31 | 40.86225 | -73.45986 | 7000 ft | 114 kts | 31° |
| 2026-05-08 00:31 | 40.86839 | -73.45301 | 6999 ft | 115 kts | 32° |
| 2026-05-08 00:31 | 40.87450 | -73.44618 | 6999 ft | 115 kts | 31° |
| 2026-05-08 00:32 | 40.88054 | -73.43943 | 7001 ft | 115 kts | 31° |
| 2026-05-08 00:32 | 40.88664 | -73.43263 | 7000 ft | 115 kts | 31° |
| 2026-05-08 00:32 | 40.89280 | -73.42574 | 7001 ft | 115 kts | 31° |
| 2026-05-08 00:32 | 40.89885 | -73.41898 | 7001 ft | 114 kts | 31° |
| 2026-05-08 00:33 | 40.90492 | -73.41221 | 7003 ft | 114 kts | 31° |
| 2026-05-08 00:33 | 40.91107 | -73.40533 | 7002 ft | 114 kts | 31° |
| 2026-05-08 00:33 | 40.91710 | -73.39859 | 7000 ft | 114 kts | 31° |
| 2026-05-08 00:33 | 40.92315 | -73.39181 | 7000 ft | 114 kts | 31° |
| 2026-05-08 00:34 | 40.92923 | -73.38502 | 6998 ft | 114 kts | 31° |
| 2026-05-08 00:34 | 40.93530 | -73.37824 | 7001 ft | 114 kts | 31° |
| 2026-05-08 00:34 | 40.94135 | -73.37147 | 7000 ft | 114 kts | 31° |
| 2026-05-08 00:34 | 40.94747 | -73.36462 | 6998 ft | 114 kts | 31° |
| 2026-05-08 00:35 | 40.95346 | -73.35792 | 7001 ft | 114 kts | 31° |
| 2026-05-08 00:35 | 40.95957 | -73.35106 | 7001 ft | 114 kts | 31° |
| 2026-05-08 00:35 | 40.96562 | -73.34428 | 7001 ft | 114 kts | 31° |
| 2026-05-08 00:35 | 40.97169 | -73.33749 | 7000 ft | 114 kts | 31° |
| 2026-05-08 00:36 | 40.97776 | -73.33073 | 6999 ft | 114 kts | 32° |
| 2026-05-08 00:36 | 40.98386 | -73.32391 | 7000 ft | 114 kts | 31° |
| 2026-05-08 00:36 | 40.98985 | -73.31709 | 6999 ft | 113 kts | 33° |
| 2026-05-08 00:36 | 40.99578 | -73.31029 | 7002 ft | 113 kts | 33° |
| 2026-05-08 00:37 | 41.00178 | -73.30346 | 7001 ft | 113 kts | 34° |
| 2026-05-08 00:37 | 41.00775 | -73.29667 | 6999 ft | 113 kts | 33° |
| 2026-05-08 00:37 | 41.01368 | -73.28999 | 6995 ft | 113 kts | 32° |
| 2026-05-08 00:38 | 41.02576 | -73.27651 | 6988 ft | 113 kts | 32° |
| 2026-05-08 00:38 | 41.03186 | -73.26978 | 6988 ft | 113 kts | 31° |
| 2026-05-08 00:38 | 41.03787 | -73.26318 | 6987 ft | 113 kts | 31° |
| 2026-05-08 00:38 | 41.04388 | -73.25654 | 6989 ft | 113 kts | 31° |
| 2026-05-08 00:39 | 41.04996 | -73.24982 | 6989 ft | 113 kts | 31° |
| 2026-05-08 00:39 | 41.05599 | -73.24310 | 6990 ft | 114 kts | 32° |
| 2026-05-08 00:39 | 41.06212 | -73.23624 | 6989 ft | 114 kts | 31° |
| 2026-05-08 00:39 | 41.06814 | -73.22951 | 6989 ft | 113 kts | 32° |
| 2026-05-08 00:40 | 41.07417 | -73.22273 | 6989 ft | 113 kts | 31° |
| 2026-05-08 00:40 | 41.08017 | -73.21600 | 6992 ft | 113 kts | 31° |
| 2026-05-08 00:40 | 41.08612 | -73.20930 | 6990 ft | 113 kts | 31° |
| 2026-05-08 00:40 | 41.09208 | -73.20261 | 6990 ft | 112 kts | 31° |
| 2026-05-08 00:41 | 41.09804 | -73.19591 | 6991 ft | 112 kts | 32° |
| 2026-05-08 00:41 | 41.10405 | -73.18915 | 6993 ft | 112 kts | 31° |
| 2026-05-08 00:41 | 41.11000 | -73.18246 | 6993 ft | 113 kts | 31° |
| 2026-05-08 00:41 | 41.11601 | -73.17569 | 6994 ft | 113 kts | 31° |
| 2026-05-08 00:42 | 41.12203 | -73.16891 | 6995 ft | 114 kts | 32° |
| 2026-05-08 00:42 | 41.12811 | -73.16204 | 6994 ft | 114 kts | 31° |
| 2026-05-08 00:42 | 41.13414 | -73.15525 | 6994 ft | 114 kts | 31° |
| 2026-05-08 00:42 | 41.14012 | -73.14848 | 6995 ft | 113 kts | 31° |
| 2026-05-08 00:43 | 41.14610 | -73.14168 | 6997 ft | 113 kts | 34° |
| 2026-05-08 00:43 | 41.15201 | -73.13475 | 6999 ft | 113 kts | 33° |
| 2026-05-08 00:43 | 41.15798 | -73.12786 | 7000 ft | 112 kts | 32° |
| 2026-05-08 00:43 | 41.16431 | -73.12249 | 7001 ft | 109 kts | 22° |
| 2026-05-08 00:44 | 41.17022 | -73.11569 | 7006 ft | 112 kts | 35° |
| 2026-05-08 00:44 | 41.17585 | -73.10848 | 7007 ft | 113 kts | 35° |
| 2026-05-08 00:44 | 41.18155 | -73.10129 | 7006 ft | 113 kts | 35° |
| 2026-05-08 00:44 | 41.18727 | -73.09418 | 7005 ft | 113 kts | 34° |
| 2026-05-08 00:45 | 41.19305 | -73.08707 | 7006 ft | 113 kts | 34° |
| 2026-05-08 00:45 | 41.19888 | -73.07996 | 7007 ft | 113 kts | 34° |
| 2026-05-08 00:45 | 41.20466 | -73.07294 | 7005 ft | 113 kts | 33° |
| 2026-05-08 00:45 | 41.21048 | -73.06592 | 7005 ft | 113 kts | 33° |
| 2026-05-08 00:46 | 41.21630 | -73.05892 | 7005 ft | 113 kts | 33° |
| 2026-05-08 00:46 | 41.22216 | -73.05189 | 7006 ft | 113 kts | 33° |
| 2026-05-08 00:46 | 41.22800 | -73.04488 | 7007 ft | 113 kts | 33° |
| 2026-05-08 00:46 | 41.23381 | -73.03793 | 7008 ft | 112 kts | 33° |
| 2026-05-08 00:47 | 41.23966 | -73.03094 | 7008 ft | 112 kts | 32° |
| 2026-05-08 00:47 | 41.24545 | -73.02402 | 7007 ft | 112 kts | 33° |
| 2026-05-08 00:47 | 41.25130 | -73.01706 | 7006 ft | 113 kts | 33° |
| 2026-05-08 00:47 | 41.25720 | -73.01000 | 7006 ft | 113 kts | 33° |
| 2026-05-08 00:48 | 41.26304 | -73.00302 | 7006 ft | 113 kts | 32° |
| 2026-05-08 00:48 | 41.26894 | -72.99597 | 7007 ft | 114 kts | 32° |
| 2026-05-08 00:48 | 41.27484 | -72.98893 | 7006 ft | 114 kts | 32° |
| 2026-05-08 00:48 | 41.28068 | -72.98198 | 7006 ft | 113 kts | 32° |
| 2026-05-08 00:49 | 41.28665 | -72.97487 | 7006 ft | 113 kts | 32° |
| 2026-05-08 00:49 | 41.29245 | -72.96795 | 7006 ft | 113 kts | 32° |
| 2026-05-08 00:49 | 41.29837 | -72.96088 | 7005 ft | 113 kts | 32° |
| 2026-05-08 00:49 | 41.30423 | -72.95388 | 7005 ft | 113 kts | 32° |
| 2026-05-08 00:50 | 41.31009 | -72.94685 | 7005 ft | 113 kts | 32° |
| 2026-05-08 00:50 | 41.31593 | -72.93983 | 7005 ft | 113 kts | 32° |
| 2026-05-08 00:50 | 41.32171 | -72.93290 | 7006 ft | 113 kts | 32° |
| 2026-05-08 00:50 | 41.32754 | -72.92592 | 7006 ft | 112 kts | 32° |
| 2026-05-08 00:51 | 41.33335 | -72.91894 | 7007 ft | 112 kts | 33° |
| 2026-05-08 00:51 | 41.33918 | -72.91190 | 7006 ft | 112 kts | 32° |
| 2026-05-08 00:51 | 41.34501 | -72.90488 | 7007 ft | 112 kts | 32° |
| 2026-05-08 00:51 | 41.35078 | -72.89797 | 7008 ft | 112 kts | 32° |
| 2026-05-08 00:52 | 41.35663 | -72.89099 | 7007 ft | 113 kts | 31° |
| 2026-05-08 00:52 | 41.36249 | -72.88399 | 7008 ft | 113 kts | 31° |
| 2026-05-08 00:52 | 41.36835 | -72.87702 | 7009 ft | 113 kts | 32° |
| 2026-05-08 00:52 | 41.37422 | -72.87003 | 7008 ft | 113 kts | 32° |
| 2026-05-08 00:53 | 41.38005 | -72.86302 | 7007 ft | 113 kts | 31° |
| 2026-05-08 00:53 | 41.38592 | -72.85600 | 7009 ft | 113 kts | 32° |
| 2026-05-08 00:53 | 41.39183 | -72.84892 | 7007 ft | 113 kts | 31° |
| 2026-05-08 00:53 | 41.39764 | -72.84195 | 7007 ft | 113 kts | 31° |
| 2026-05-08 00:54 | 41.40348 | -72.83494 | 7007 ft | 113 kts | 31° |
| 2026-05-08 00:54 | 41.40930 | -72.82797 | 7008 ft | 113 kts | 31° |
| 2026-05-08 00:54 | 41.41513 | -72.82096 | 7007 ft | 113 kts | 32° |
| 2026-05-08 00:54 | 41.42103 | -72.81388 | 7007 ft | 113 kts | 32° |
| 2026-05-08 00:55 | 41.42680 | -72.80692 | 7007 ft | 113 kts | 31° |
| 2026-05-08 00:55 | 41.43265 | -72.79982 | 7008 ft | 113 kts | 32° |
| 2026-05-08 00:55 | 41.43836 | -72.79243 | 7006 ft | 115 kts | 34° |
| 2026-05-08 00:55 | 41.44401 | -72.78489 | 7002 ft | 113 kts | 31° |
| 2026-05-08 00:56 | 41.44998 | -72.77843 | 7003 ft | 112 kts | 27° |
| 2026-05-08 00:56 | 41.45593 | -72.77155 | 6999 ft | 114 kts | 31° |
| 2026-05-08 00:56 | 41.46186 | -72.76447 | 6998 ft | 114 kts | 31° |
| 2026-05-08 00:56 | 41.46777 | -72.75732 | 6999 ft | 115 kts | 32° |
| 2026-05-08 00:57 | 41.47377 | -72.75007 | 6999 ft | 115 kts | 31° |
| 2026-05-08 00:57 | 41.47970 | -72.74289 | 7001 ft | 115 kts | 32° |
| 2026-05-08 00:57 | 41.48562 | -72.73574 | 7003 ft | 115 kts | 31° |
| 2026-05-08 00:57 | 41.49162 | -72.72847 | 7004 ft | 115 kts | 32° |
| 2026-05-08 00:58 | 41.49752 | -72.72134 | 7009 ft | 115 kts | 31° |
| 2026-05-08 00:58 | 41.50356 | -72.71406 | 7008 ft | 115 kts | 31° |
| 2026-05-08 00:58 | 41.50948 | -72.70689 | 7010 ft | 115 kts | 32° |
| 2026-05-08 00:58 | 41.51539 | -72.69977 | 7010 ft | 115 kts | 32° |
| 2026-05-08 00:59 | 41.52136 | -72.69255 | 7008 ft | 115 kts | 31° |
| 2026-05-08 00:59 | 41.52727 | -72.68546 | 7007 ft | 115 kts | 30° |
| 2026-05-08 00:59 | 41.53322 | -72.67833 | 7009 ft | 115 kts | 30° |
| 2026-05-08 00:59 | 41.53914 | -72.67123 | 7010 ft | 115 kts | 30° |
| 2026-05-08 01:00 | 41.54512 | -72.66402 | 7010 ft | 115 kts | 31° |
| 2026-05-08 01:00 | 41.55110 | -72.65685 | 7008 ft | 115 kts | 30° |
| 2026-05-08 01:00 | 41.55703 | -72.64971 | 7006 ft | 115 kts | 30° |
| 2026-05-08 01:00 | 41.56309 | -72.64246 | 7006 ft | 116 kts | 30° |
| 2026-05-08 01:01 | 41.56903 | -72.63534 | 7007 ft | 116 kts | 30° |
| 2026-05-08 01:01 | 41.57508 | -72.62807 | 7008 ft | 116 kts | 30° |
| 2026-05-08 01:01 | 41.58108 | -72.62083 | 7007 ft | 116 kts | 30° |
| 2026-05-08 01:01 | 41.58705 | -72.61362 | 7008 ft | 115 kts | 31° |
| 2026-05-08 01:02 | 41.59296 | -72.60645 | 7009 ft | 116 kts | 32° |
| 2026-05-08 01:02 | 41.59890 | -72.59902 | 7007 ft | 116 kts | 33° |
| 2026-05-08 01:02 | 41.60475 | -72.59171 | 7007 ft | 116 kts | 33° |
| 2026-05-08 01:02 | 41.61061 | -72.58442 | 7008 ft | 115 kts | 33° |
| 2026-05-08 01:03 | 41.61659 | -72.57714 | 7006 ft | 114 kts | 30° |
| 2026-05-08 01:03 | 41.62259 | -72.57006 | 7006 ft | 115 kts | 30° |
| 2026-05-08 01:03 | 41.62859 | -72.56297 | 7015 ft | 116 kts | 30° |
| 2026-05-08 01:03 | 41.63461 | -72.55579 | 7006 ft | 116 kts | 30° |
| 2026-05-08 01:04 | 41.64027 | -72.54795 | 6992 ft | 123 kts | 49° |
| 2026-05-08 01:04 | 41.64358 | -72.53722 | 7000 ft | 125 kts | 61° |
| 2026-05-08 01:04 | 41.64625 | -72.52606 | 7006 ft | 126 kts | 63° |
| 2026-05-08 01:04 | 41.64884 | -72.51487 | 7008 ft | 126 kts | 63° |
| 2026-05-08 01:05 | 41.65141 | -72.50371 | 7005 ft | 126 kts | 63° |
| 2026-05-08 01:05 | 41.65400 | -72.49237 | 7013 ft | 126 kts | 63° |
| 2026-05-08 01:05 | 41.65657 | -72.48112 | 7019 ft | 127 kts | 63° |
| 2026-05-08 01:05 | 41.65913 | -72.46987 | 6990 ft | 127 kts | 63° |
| 2026-05-08 01:06 | 41.66167 | -72.45867 | 7007 ft | 126 kts | 64° |
| 2026-05-08 01:06 | 41.66422 | -72.44746 | 7002 ft | 125 kts | 63° |
| 2026-05-08 01:06 | 41.66678 | -72.43622 | 7005 ft | 126 kts | 63° |
| 2026-05-08 01:06 | 41.66930 | -72.42508 | 7005 ft | 126 kts | 64° |
| 2026-05-08 01:07 | 41.67185 | -72.41380 | 7006 ft | 126 kts | 63° |
| 2026-05-08 01:07 | 41.67440 | -72.40256 | 7006 ft | 126 kts | 63° |
| 2026-05-08 01:07 | 41.67693 | -72.39140 | 7008 ft | 126 kts | 63° |
| 2026-05-08 01:07 | 41.67946 | -72.38015 | 7007 ft | 126 kts | 63° |
| 2026-05-08 01:08 | 41.68201 | -72.36891 | 7007 ft | 126 kts | 63° |
| 2026-05-08 01:08 | 41.68457 | -72.35761 | 7006 ft | 126 kts | 63° |
| 2026-05-08 01:08 | 41.68712 | -72.34630 | 7002 ft | 126 kts | 64° |
| 2026-05-08 01:08 | 41.68963 | -72.33514 | 7001 ft | 126 kts | 63° |
| 2026-05-08 01:09 | 41.69217 | -72.32389 | 7004 ft | 125 kts | 63° |
| 2026-05-08 01:09 | 41.69473 | -72.31258 | 7002 ft | 125 kts | 63° |
| 2026-05-08 01:09 | 41.69724 | -72.30145 | 7003 ft | 125 kts | 64° |
| 2026-05-08 01:09 | 41.69978 | -72.29019 | 7004 ft | 125 kts | 66° |
| 2026-05-08 01:10 | 41.70216 | -72.27911 | 7006 ft | 125 kts | 66° |
| 2026-05-08 01:10 | 41.70458 | -72.26783 | 7006 ft | 125 kts | 65° |
| 2026-05-08 01:10 | 41.70699 | -72.25677 | 7008 ft | 125 kts | 65° |
| 2026-05-08 01:10 | 41.70947 | -72.24550 | 7007 ft | 125 kts | 65° |
| 2026-05-08 01:11 | 41.71195 | -72.23445 | 7005 ft | 125 kts | 64° |
| 2026-05-08 01:11 | 41.71448 | -72.22320 | 7003 ft | 125 kts | 63° |
| 2026-05-08 01:11 | 41.71702 | -72.21201 | 7001 ft | 125 kts | 63° |
| 2026-05-08 01:11 | 41.71955 | -72.20083 | 6997 ft | 125 kts | 64° |
| 2026-05-08 01:12 | 41.72211 | -72.18973 | 6998 ft | 125 kts | 63° |
| 2026-05-08 01:12 | 41.72468 | -72.17856 | 6998 ft | 125 kts | 63° |
| 2026-05-08 01:12 | 41.72724 | -72.16736 | 6998 ft | 125 kts | 63° |
| 2026-05-08 01:12 | 41.72975 | -72.15632 | 6998 ft | 125 kts | 63° |
| 2026-05-08 01:13 | 41.73228 | -72.14510 | 6999 ft | 125 kts | 63° |
| 2026-05-08 01:13 | 41.73479 | -72.13395 | 6998 ft | 125 kts | 63° |
| 2026-05-08 01:13 | 41.73730 | -72.12282 | 6996 ft | 125 kts | 63° |
| 2026-05-08 01:13 | 41.73980 | -72.11161 | 6996 ft | 125 kts | 63° |
| 2026-05-08 01:14 | 41.74230 | -72.10043 | 6996 ft | 124 kts | 64° |
| 2026-05-08 01:14 | 41.74477 | -72.08930 | 6997 ft | 124 kts | 63° |
| 2026-05-08 01:14 | 41.74723 | -72.07816 | 6999 ft | 124 kts | 63° |
| 2026-05-08 01:14 | 41.74968 | -72.06712 | 7014 ft | 125 kts | 64° |
| 2026-05-08 01:15 | 41.75219 | -72.05579 | 6993 ft | 126 kts | 63° |
| 2026-05-08 01:15 | 41.75469 | -72.04449 | 6988 ft | 125 kts | 63° |
| 2026-05-08 01:15 | 41.75716 | -72.03334 | 7000 ft | 124 kts | 64° |
| 2026-05-08 01:15 | 41.75962 | -72.02226 | 7005 ft | 125 kts | 63° |
| 2026-05-08 01:16 | 41.76213 | -72.01101 | 6992 ft | 125 kts | 63° |
| 2026-05-08 01:16 | 41.76463 | -71.99975 | 6995 ft | 125 kts | 64° |
| 2026-05-08 01:16 | 41.76711 | -71.98861 | 7007 ft | 125 kts | 64° |
| 2026-05-08 01:16 | 41.76960 | -71.97729 | 6998 ft | 125 kts | 64° |
| 2026-05-08 01:17 | 41.77207 | -71.96614 | 6995 ft | 125 kts | 64° |
| 2026-05-08 01:17 | 41.77454 | -71.95497 | 7008 ft | 125 kts | 63° |
| 2026-05-08 01:17 | 41.77703 | -71.94376 | 6998 ft | 126 kts | 64° |
| 2026-05-08 01:17 | 41.77952 | -71.93253 | 6994 ft | 125 kts | 64° |
| 2026-05-08 01:18 | 41.78202 | -71.92124 | 6993 ft | 125 kts | 64° |
| 2026-05-08 01:18 | 41.78449 | -71.91012 | 6995 ft | 124 kts | 64° |
| 2026-05-08 01:18 | 41.78696 | -71.89902 | 6990 ft | 124 kts | 63° |
| 2026-05-08 01:18 | 41.78946 | -71.88786 | 6988 ft | 124 kts | 63° |
| 2026-05-08 01:19 | 41.79194 | -71.87672 | 6989 ft | 124 kts | 63° |
| 2026-05-08 01:19 | 41.79440 | -71.86565 | 6987 ft | 124 kts | 64° |
| 2026-05-08 01:19 | 41.79684 | -71.85465 | 6986 ft | 123 kts | 64° |
| 2026-05-08 01:19 | 41.79930 | -71.84352 | 6985 ft | 123 kts | 64° |
| 2026-05-08 01:20 | 41.80174 | -71.83247 | 6986 ft | 123 kts | 64° |
| 2026-05-08 01:20 | 41.80417 | -71.82145 | 6989 ft | 123 kts | 64° |
| 2026-05-08 01:20 | 41.80658 | -71.81039 | 6992 ft | 123 kts | 65° |
| 2026-05-08 01:20 | 41.80898 | -71.79931 | 6986 ft | 124 kts | 64° |
| 2026-05-08 01:21 | 41.81137 | -71.78817 | 6983 ft | 124 kts | 65° |
| 2026-05-08 01:21 | 41.81376 | -71.77711 | 6979 ft | 123 kts | 64° |
| 2026-05-08 01:21 | 41.81611 | -71.76623 | 6979 ft | 122 kts | 64° |
| 2026-05-08 01:21 | 41.81853 | -71.75517 | 6988 ft | 122 kts | 64° |
| 2026-05-08 01:22 | 41.82093 | -71.74426 | 6986 ft | 123 kts | 64° |
| 2026-05-08 01:22 | 41.82335 | -71.73319 | 6990 ft | 124 kts | 64° |
| 2026-05-08 01:22 | 41.82579 | -71.72210 | 6981 ft | 124 kts | 64° |
| 2026-05-08 01:22 | 41.82822 | -71.71096 | 6974 ft | 123 kts | 64° |
| 2026-05-08 01:23 | 41.83063 | -71.69995 | 6979 ft | 122 kts | 64° |
| 2026-05-08 01:23 | 41.83303 | -71.68901 | 6974 ft | 121 kts | 64° |
| 2026-05-08 01:23 | 41.83543 | -71.67809 | 6981 ft | 121 kts | 65° |
| 2026-05-08 01:23 | 41.83778 | -71.66732 | 6985 ft | 121 kts | 64° |
| 2026-05-08 01:24 | 41.84017 | -71.65641 | 6973 ft | 121 kts | 64° |
| 2026-05-08 01:24 | 41.84263 | -71.64578 | 6991 ft | 118 kts | 55° |
| 2026-05-08 01:24 | 41.84745 | -71.63739 | 6999 ft | 111 kts | 35° |
| 2026-05-08 01:24 | 41.85303 | -71.63009 | 6997 ft | 112 kts | 33° |
| 2026-05-08 01:25 | 41.85844 | -71.62223 | 6993 ft | 119 kts | 51° |
| 2026-05-08 01:25 | 41.86095 | -71.61144 | 6985 ft | 125 kts | 71° |
| 2026-05-08 01:25 | 41.86230 | -71.59965 | 6937 ft | 129 kts | 76° |
| 2026-05-08 01:25 | 41.86321 | -71.58767 | 6890 ft | 131 kts | 78° |
| 2026-05-08 01:26 | 41.86398 | -71.57534 | 6842 ft | 134 kts | 79° |
| 2026-05-08 01:26 | 41.86469 | -71.56265 | 6791 ft | 135 kts | 79° |
| 2026-05-08 01:26 | 41.86534 | -71.55015 | 6741 ft | 135 kts | 79° |
| 2026-05-08 01:26 | 41.86598 | -71.53744 | 6690 ft | 136 kts | 79° |
| 2026-05-08 01:27 | 41.86663 | -71.52490 | 6640 ft | 136 kts | 79° |
| 2026-05-08 01:27 | 41.86727 | -71.51225 | 6588 ft | 136 kts | 79° |
| 2026-05-08 01:27 | 41.86792 | -71.49960 | 6538 ft | 136 kts | 80° |
| 2026-05-08 01:27 | 41.86855 | -71.48692 | 6487 ft | 136 kts | 80° |
| 2026-05-08 01:28 | 41.86919 | -71.47424 | 6436 ft | 135 kts | 81° |
| 2026-05-08 01:28 | 41.86981 | -71.46157 | 6384 ft | 135 kts | 81° |
| 2026-05-08 01:28 | 41.87045 | -71.44898 | 6332 ft | 135 kts | 79° |
| 2026-05-08 01:28 | 41.87109 | -71.43651 | 6282 ft | 135 kts | 79° |
| 2026-05-08 01:29 | 41.87174 | -71.42391 | 6234 ft | 135 kts | 80° |
| 2026-05-08 01:29 | 41.87236 | -71.41133 | 6185 ft | 134 kts | 79° |
| 2026-05-08 01:29 | 41.87299 | -71.39886 | 6136 ft | 134 kts | 79° |
| 2026-05-08 01:29 | 41.87362 | -71.38635 | 6083 ft | 133 kts | 79° |
| 2026-05-08 01:30 | 41.87424 | -71.37406 | 6032 ft | 133 kts | 80° |
| 2026-05-08 01:30 | 41.87487 | -71.36156 | 5981 ft | 134 kts | 80° |
| 2026-05-08 01:30 | 41.87548 | -71.34907 | 5930 ft | 135 kts | 81° |
| 2026-05-08 01:30 | 41.87611 | -71.33634 | 5876 ft | 136 kts | 81° |
| 2026-05-08 01:31 | 41.87673 | -71.32364 | 5823 ft | 136 kts | 80° |
| 2026-05-08 01:31 | 41.87734 | -71.31092 | 5771 ft | 137 kts | 81° |
| 2026-05-08 01:31 | 41.87796 | -71.29805 | 5713 ft | 137 kts | 81° |
| 2026-05-08 01:31 | 41.87858 | -71.28531 | 5660 ft | 137 kts | 81° |
| 2026-05-08 01:32 | 41.87919 | -71.27264 | 5606 ft | 136 kts | 81° |
| 2026-05-08 01:32 | 41.87979 | -71.26002 | 5551 ft | 135 kts | 81° |
| 2026-05-08 01:32 | 41.88040 | -71.24741 | 5496 ft | 135 kts | 80° |
| 2026-05-08 01:32 | 41.88101 | -71.23478 | 5443 ft | 135 kts | 80° |
| 2026-05-08 01:33 | 41.88161 | -71.22232 | 5389 ft | 135 kts | 80° |
| 2026-05-08 01:33 | 41.88222 | -71.20959 | 5336 ft | 135 kts | 81° |
| 2026-05-08 01:33 | 41.88283 | -71.19710 | 5282 ft | 135 kts | 81° |
| 2026-05-08 01:33 | 41.88343 | -71.18449 | 5231 ft | 135 kts | 80° |
| 2026-05-08 01:34 | 41.88403 | -71.17189 | 5178 ft | 135 kts | 81° |
| 2026-05-08 01:34 | 41.88461 | -71.15919 | 5019 ft | 133 kts | 82° |
| 2026-05-08 01:34 | 41.88512 | -71.14690 | 4816 ft | 129 kts | 81° |
| 2026-05-08 01:34 | 41.88566 | -71.13487 | 4585 ft | 130 kts | 80° |
| 2026-05-08 01:35 | 41.88624 | -71.12294 | 4397 ft | 129 kts | 80° |
| 2026-05-08 01:35 | 41.88680 | -71.11097 | 4228 ft | 127 kts | 81° |
| 2026-05-08 01:35 | 41.88805 | -71.09927 | 4001 ft | 124 kts | 59° |
| 2026-05-08 01:35 | 41.89378 | -71.09177 | 3804 ft | 111 kts | 13° |
| 2026-05-08 01:36 | 41.90083 | -71.08819 | 3628 ft | 112 kts | 27° |
| 2026-05-08 01:36 | 41.90692 | -71.08141 | 3382 ft | 110 kts | 33° |
| 2026-05-08 01:36 | 41.91251 | -71.07452 | 3127 ft | 109 kts | 33° |
| 2026-05-08 01:36 | 41.91782 | -71.06770 | 3122 ft | 107 kts | 33° |
| 2026-05-08 01:37 | 41.92383 | -71.06233 | 3167 ft | 98 kts | 2° |
| 2026-05-08 01:37 | 41.93027 | -71.06435 | 3117 ft | 98 kts | 328° |
| 2026-05-08 01:37 | 41.93538 | -71.06961 | 2972 ft | 90 kts | 318° |
| 2026-05-08 01:37 | 41.93953 | -71.07526 | 2847 ft | 81 kts | 313° |
| 2026-05-08 01:38 | 41.94300 | -71.08103 | 2716 ft | 79 kts | 309° |
| 2026-05-08 01:38 | 41.94631 | -71.08688 | 2577 ft | 78 kts | 308° |
| 2026-05-08 01:38 | 41.94953 | -71.09270 | 2445 ft | 77 kts | 307° |
| 2026-05-08 01:38 | 41.95271 | -71.09863 | 2312 ft | 84 kts | 306° |
| 2026-05-08 01:39 | 41.95632 | -71.10574 | 2150 ft | 99 kts | 305° |
| 2026-05-08 01:39 | 41.95993 | -71.11390 | 1958 ft | 106 kts | 303° |
| 2026-05-08 01:39 | 41.96417 | -71.12216 | 1718 ft | 110 kts | 305° |
| 2026-05-08 01:39 | 41.96798 | -71.12996 | 1526 ft | 102 kts | 305° |
| 2026-05-08 01:40 | 41.97147 | -71.13718 | 1426 ft | 87 kts | 306° |
| 2026-05-08 01:40 | 41.97470 | -71.14390 | 1273 ft | 86 kts | 304° |
| 2026-05-08 01:40 | 41.97785 | -71.15044 | 1110 ft | 83 kts | 303° |
| 2026-05-08 01:40 | 41.98101 | -71.15695 | 955 ft | 81 kts | 305° |
| 2026-05-08 01:41 | 41.98405 | -71.16322 | 811 ft | 80 kts | 306° |
| 2026-05-08 01:41 | 41.98714 | -71.16929 | 691 ft | 75 kts | 303° |
| 2026-05-08 01:41 | 41.98999 | -71.17530 | 523 ft | 76 kts | 303° |
| 2026-05-08 01:41 | 41.99281 | -71.18123 | 394 ft | 74 kts | 303° |
| 2026-05-08 01:42 | 41.99528 | -71.18662 | 280 ft | 60 kts | 303° |
| 2026-05-08 01:42 | 41.99749 | -71.19119 | 132 ft | 56 kts | 304° |
| 2026-05-08 01:42 | 41.99936 | -71.19508 | 112 ft | 48 kts | 301° |
| 2026-05-08 01:42 | 42.00135 | -71.19926 | 120 ft | 53 kts | 305° |
| 2026-05-08 01:43 | 42.00248 | -71.20116 | 118 ft | 14 kts | 34° |
| 2026-05-08 01:43 | 42.00343 | -71.20054 | 118 ft | 18 kts | 12° |
| 2026-05-08 01:43 | 42.00482 | -71.19994 | 121 ft | 26 kts | 24° |